METAR Data
IDs: Format: Raw Decoded Include TAF

Data at: 1415 UTC 10 Aug 2022

KFOT 101355Z AUTO 15006KT 10SM CLR 11/10 A3006 RMK AO1
KFOT 101335Z AUTO 13008KT 10SM CLR 11/10 A3006 RMK AO1
KFOT 101315Z AUTO 13007KT 10SM CLR 10/10 A3005 RMK AO1
KFOT 101255Z AUTO 14008KT 10SM CLR 10/10 A3004 RMK AO1
KFOT 101235Z AUTO 15007KT 10SM CLR 10/10 A3004 RMK AO1
KFOT 101215Z AUTO 14009KT 10SM CLR 10/10 A3004 RMK AO1
KFOT 101155Z AUTO 15008KT 10SM CLR 10/10 A3004 RMK AO1
KFOT 101135Z AUTO 15007KT 9SM CLR 10/10 A3004 RMK AO1
KFOT 101115Z AUTO 15007KT 10SM CLR 10/10 A3004 RMK AO1
KFOT 101055Z AUTO 14007KT 10SM CLR 11/10 A3004 RMK AO1
KFOT 101035Z AUTO 15007KT 10SM CLR 11/10 A3004 RMK AO1
KFOT 101015Z AUTO 14006KT 10SM CLR 11/11 A3004 RMK AO1
KFOT 100955Z AUTO 14007KT 10SM CLR 11/11 A3004 RMK AO1
KFOT 100935Z AUTO 13007KT 10SM CLR 12/12 A3004 RMK AO1
KFOT 100915Z AUTO 14007KT 10SM CLR 12/12 A3004 RMK AO1
KFOT 100855Z AUTO 14006KT 10SM CLR 12/12 A3004 RMK AO1
KFOT 100835Z AUTO 15006KT 10SM CLR 11/11 A3004 RMK AO1
KFOT 100815Z AUTO 12006KT 10SM CLR 12/12 A3003 RMK AO1
KFOT 100755Z AUTO 11007KT 10SM CLR 12/12 A3004 RMK AO1
KFOT 100735Z AUTO 15004KT 10SM CLR 12/12 A3004 RMK AO1
KFOT 100715Z AUTO 16005KT 10SM CLR 12/12 A3003 RMK AO1
KFOT 100655Z AUTO 16005KT 10SM CLR 12/12 A3003 RMK AO1
KFOT 100635Z AUTO 13005KT 10SM CLR 12/12 A3003 RMK AO1
KFOT 100615Z AUTO 15006KT 10SM CLR 13/13 A3003 RMK AO1
KFOT 100555Z AUTO 16005KT 10SM CLR 13/13 A3003 RMK AO1
KFOT 100535Z AUTO 08003KT 10SM CLR 13/13 A3003 RMK AO1
KFOT 100515Z AUTO 21003KT 10SM CLR 13/13 A3003 RMK AO1
KFOT 100455Z AUTO 22003KT 10SM CLR 14/13 A3002 RMK AO1
KFOT 100435Z AUTO 00000KT 10SM CLR 14/13 A3002 RMK AO1
KFOT 100415Z AUTO 22004KT 10SM CLR 14/13 A3001 RMK AO1
KFOT 100355Z AUTO 23004KT 10SM CLR 14/13 A3001 RMK AO1
KFOT 100335Z AUTO 25003KT 10SM CLR 15/13 A3001 RMK AO1
KFOT 100315Z AUTO 28005KT 10SM SCT032 15/13 A3001 RMK AO1
KFOT 100255Z AUTO 30005KT 10SM BKN032 17/13 A3001 RMK AO1
KFOT 100235Z AUTO 29006KT 10SM BKN034 18/13 A3001 RMK AO1
KFOT 100215Z AUTO 30007KT 10SM BKN038 18/13 A3001 RMK AO1
KFOT 100155Z AUTO 30007KT 10SM OVC038 19/13 A3001 RMK AO1
KFOT 100135Z AUTO 31009KT 10SM OVC038 19/13 A3001 RMK AO1
KFOT 100115Z AUTO 32011KT 10SM OVC036 19/13 A3001 RMK AO1
KFOT 100055Z AUTO 33012KT 10SM BKN036 18/13 A3001 RMK AO1
KFOT 100035Z AUTO 31012KT 10SM SCT036 19/12 A3001 RMK AO1
KFOT 100015Z AUTO 31011G15KT 10SM SCT036 20/12 A3001 RMK AO1
KFOT 092355Z AUTO 33013KT 10SM SCT036 20/12 A3000 RMK AO1
KFOT 092335Z AUTO 34014G19KT 10SM SCT036 SCT095 20/12 A3000 RMK AO1
KFOT 092315Z AUTO 34013KT 10SM FEW065 FEW095 20/13 A3000 RMK AO1
KFOT 092255Z AUTO 31011G17KT 10SM FEW034 FEW085 20/13 A3000 RMK AO1
KFOT 092230Z AUTO 32011G16KT 10SM FEW034 SCT110 20/13 A3000 RMK AO1
KFOT 092215Z AUTO 32013G17KT 10SM CLR 20/13 A3000 RMK AO1
KFOT 092155Z AUTO 31013KT 10SM CLR 20/13 A3000 RMK AO1
KFOT 092135Z AUTO 31012G16KT 10SM FEW019 SCT025 20/13 A3000 RMK AO1
KFOT 092110Z AUTO 33007KT 10SM BKN019 19/14 A3000 RMK AO1
KFOT 092055Z AUTO 33007KT 10SM BKN015 19/14 A3000 RMK AO1
KFOT 092035Z AUTO 31006KT 10SM BKN015 18/14 A3000 RMK AO1
KFOT 092015Z AUTO 33006KT 10SM BKN015 17/14 A3000 RMK AO1
KFOT 091955Z AUTO 31007KT 10SM FEW009 BKN015 17/14 A3001 RMK AO1
KFOT 091935Z AUTO 28009KT 10SM SCT010 BKN013 OVC070 16/14 A3000 RMK AO1
KFOT 091915Z AUTO 29006KT 10SM BKN013 BKN070 17/14 A3000 RMK AO1
KFOT 091855Z AUTO 30004KT 10SM BKN013 17/14 A3000 RMK AO1
KFOT 091835Z AUTO 21003KT 10SM BKN013 16/14 A3000 RMK AO1
KFOT 091810Z AUTO 20003KT 10SM OVC013 16/14 A3001 RMK AO1
KFOT 091755Z AUTO 24004KT 10SM SCT009 BKN013 15/14 A3001 RMK AO1
KFOT 091735Z AUTO 00000KT 8SM BKN009 OVC013 15/14 A3001 RMK AO1
KFOT 091715Z AUTO 00000KT 5SM FEW006 OVC013 14/14 A3001 RMK AO1
KFOT 091650Z AUTO 16003KT 7SM BKN009 OVC013 14/14 A3001 RMK AO1
KFOT 091635Z AUTO 00000KT 9SM OVC009 14/14 A3001 RMK AO1
KFOT 091615Z AUTO 00000KT 10SM OVC009 14/14 A3001 RMK AO1
KFOT 091555Z AUTO 00000KT 10SM OVC009 14/14 A3001 RMK AO1
KFOT 091530Z AUTO 00000KT 6SM OVC009 14/14 A3001 RMK AO1
KFOT 091515Z AUTO 00000KT 8SM OVC009 14/14 A3000 RMK AO1
KFOT 091455Z AUTO 00000KT 10SM OVC009 14/13 A3000 RMK AO1
KFOT 091435Z AUTO 00000KT 10SM OVC009 13/13 A3000 RMK AO1
KFOT 091415Z AUTO 09003KT 10SM OVC009 13/13 A2999 RMK AO1
KFOT 091355Z AUTO 11004KT 10SM OVC009 13/13 A2999 RMK AO1
KFOT 091335Z AUTO 00000KT 10SM OVC009 13/13 A2999 RMK AO1
KFOT 091315Z AUTO 00000KT 10SM OVC009 13/13 A2999 RMK AO1
KFOT 091255Z AUTO 00000KT 10SM OVC011 13/13 A2998 RMK AO1
KFOT 091235Z AUTO 10003KT 10SM OVC011 13/13 A2998 RMK AO1
KFOT 091215Z AUTO 12003KT 10SM OVC011 13/13 A2998 RMK AO1
KFOT 091155Z AUTO 14003KT 10SM OVC011 13/13 A2999 RMK AO1
KFOT 091135Z AUTO 15003KT 10SM OVC011 12/12 A2998 RMK AO1
KFOT 091115Z AUTO 15003KT 10SM OVC011 13/13 A2999 RMK AO1
KFOT 091055Z AUTO 13003KT 10SM OVC011 12/12 A2999 RMK AO1
KFOT 091035Z AUTO 15003KT 10SM OVC011 12/12 A2999 RMK AO1
KFOT 091015Z AUTO 15003KT 10SM OVC013 12/12 A2999 RMK AO1
KFOT 090955Z AUTO 13003KT 10SM BKN013 12/12 A2998 RMK AO1
KFOT 090935Z AUTO 12003KT 10SM CLR 12/11 A2999 RMK AO1
KFOT 090910Z AUTO 15003KT 10SM CLR 12/11 A2999 RMK AO1
KFOT 090855Z AUTO 15003KT 10SM CLR 12/12 A2999 RMK AO1
KFOT 090835Z AUTO 15003KT 10SM CLR 12/11 A3000 RMK AO1
KFOT 090815Z AUTO 15003KT 10SM CLR 12/12 A3000 RMK AO1
KFOT 090755Z AUTO 16003KT 10SM CLR 12/12 A3000 RMK AO1
KFOT 090735Z AUTO 16004KT 10SM CLR 12/12 A3000 RMK AO1
KFOT 090715Z AUTO 20003KT 10SM CLR 13/13 A3000 RMK AO1
KFOT 090655Z AUTO 21003KT 10SM CLR 13/13 A3000 RMK AO1
KFOT 090635Z AUTO 22003KT 10SM CLR 13/13 A3001 RMK AO1
KFOT 090615Z AUTO 00000KT 10SM CLR 13/13 A3001 RMK AO1
KFOT 090555Z AUTO 28004KT 10SM CLR 14/13 A3001 RMK AO1
KFOT 090535Z AUTO 29005KT 10SM CLR 14/13 A3001 RMK AO1
KFOT 090515Z AUTO 29006KT 10SM CLR 14/13 A3001 RMK AO1
KFOT 090455Z AUTO 29006KT 10SM CLR 14/13 A3001 RMK AO1
KFOT 090435Z AUTO 29006KT 10SM CLR 14/13 A3001 RMK AO1
KFOT 090415Z AUTO 29006KT 10SM CLR 14/13 A3001 RMK AO1
KFOT 090355Z AUTO 30006KT 10SM CLR 14/13 A3001 RMK AO1
KFOT 090335Z AUTO 30007KT 10SM CLR 15/13 A3000 RMK AO1
KFOT 090315Z AUTO 30008KT 10SM CLR 15/13 A3000 RMK AO1
KFOT 090255Z AUTO 30008KT 10SM CLR 17/13 A3000 RMK AO1
KFOT 090235Z AUTO 30009KT 10SM CLR 17/13 A2999 RMK AO1